Terminal Aerodrome Forecast
Issued by NWS Louisville, KY

Home | Current Version | Previous Version | Text Only | Print | Product List | Glossary On
Versions: 1 2 3 4 5 6 7 8 9 10 11 12 13 14 15 16 17
733
FTUS43 KLMK 262342
TAFSDF
TAF
KSDF 262342Z 2700/2806 17012G22KT P6SM SCT250
     FM270300 17011KT P6SM BKN150 WS020/19045KT
     FM270900 19011KT 6SM -SHRA VCTS BKN050CB
     FM271100 19010KT P6SM VCTS BKN025CB
     FM271330 22011G20KT P6SM BKN025
     FM271800 25011KT P6SM BKN035=

USA.gov is the U.S. government's official web portal to all federal, state and local government web resources and services.